Latest Weather Observations for Melville Water

IDW60801

Issued at 12:03 pm WST Sunday 11 December 2016 (issued every 30 minutes, with the page automatically refreshed every 10 minutes)

About weather observations | Map of weather stations | Latest weather observations for WA | Other Formats
Station Details ID: 009091 Name: INNER DOLPHIN PYLON Lat: -31.99 Lon: 115.83 Height: 0.0 m
Data from the previous 72 hours. | See also: Recent months at Melville Water
Date/Time
WST
Temp
°C
App
Temp
°C
Dew
Point
°C
Rel
Hum
%
Delta-T
°C
Wind Press
QNH
hPa
Press
MSL
hPa
Rain since
9am
mm
Dir  Spd
km/h
Gust
km/h
Spd
kts
Gust
kts
11/12:00pm - - - - - SW 20 24 11 13 - - -
11/11:30am - - - - - SW 20 24 11 13 - - -
11/11:00am - - - - - SW 15 20 8 11 - - -
11/10:30am - - - - - SW 13 22 7 12 - - -
11/10:00am - - - - - SSW 9 15 5 8 - - -
11/09:30am - - - - - SSW 13 20 7 11 - - -
11/09:00am - - - - - SW 22 28 12 15 - - -
11/08:30am - - - - - SW 24 32 13 17 - - -
11/08:00am - - - - - S 7 11 4 6 - - -
11/07:30am - - - - - SSE 9 11 5 6 - - -
11/07:00am - - - - - SSW 11 15 6 8 - - -
11/06:30am - - - - - SSW 9 13 5 7 - - -
11/06:00am - - - - - W 6 7 3 4 - - -
11/05:30am - - - - - WSW 9 11 5 6 - - -
11/05:00am - - - - - WNW 4 6 2 3 - - -
11/04:30am - - - - - N 4 6 2 3 - - -
11/04:00am - - - - - NW 6 11 3 6 - - -
11/03:30am - - - - - WNW 9 13 5 7 - - -
11/03:00am - - - - - WNW 7 9 4 5 - - -
11/02:30am - - - - - ESE 6 7 3 4 - - -
11/02:00am - - - - - S 13 19 7 10 - - -
11/01:30am - - - - - SW 4 9 2 5 - - -
11/01:00am - - - - - WSW 11 17 6 9 - - -
11/12:30am - - - - - SW 7 9 4 5 - - -
11/12:00am - - - - - SSW 7 11 4 6 - - -
 
Date/Time
WST
Temp
°C
App
Temp
°C
Dew
Point
°C
Rel
Hum
%
Delta-T
°C
Wind Press
QNH
hPa
Press
MSL
hPa
Rain since
9am
mm
Dir  Spd
km/h
Gust
km/h
Spd
kts
Gust
kts
10/11:30pm - - - - - SW 11 13 6 7 - - -
10/11:00pm - - - - - SSW 11 15 6 8 - - -
10/10:30pm - - - - - SW 13 17 7 9 - - -
10/10:00pm - - - - - SW 13 17 7 9 - - -
10/09:30pm - - - - - SW 15 20 8 11 - - -
10/09:00pm - - - - - WSW 13 19 7 10 - - -
10/08:30pm - - - - - WSW 17 20 9 11 - - -
10/08:00pm - - - - - WSW 15 20 8 11 - - -
10/07:30pm - - - - - W 13 19 7 10 - - -
10/07:00pm - - - - - WSW 15 19 8 10 - - -
10/06:30pm - - - - - WSW 13 17 7 9 - - -
10/06:00pm - - - - - WSW 15 20 8 11 - - -
10/05:30pm - - - - - SW 11 15 6 8 - - -
10/05:00pm - - - - - WSW 13 20 7 11 - - -
10/04:30pm - - - - - WSW 15 22 8 12 - - -
10/04:00pm - - - - - WSW 13 19 7 10 - - -
10/03:30pm - - - - - WSW 17 24 9 13 - - -
10/03:00pm - - - - - WSW 13 19 7 10 - - -
10/02:30pm - - - - - W 20 28 11 15 - - -
10/02:00pm - - - - - WNW 20 32 11 17 - - -
10/01:30pm - - - - - W 22 30 12 16 - - -
10/01:00pm - - - - - W 22 30 12 16 - - -
10/12:30pm - - - - - NW 24 33 13 18 - - -
10/12:00pm - - - - - WNW 30 39 16 21 - - -
10/11:30am - - - - - WNW 22 33 12 18 - - -
10/11:00am - - - - - NNE 11 19 6 10 - - -
10/10:30am - - - - - NE 17 22 9 12 - - -
10/10:00am - - - - - NNE 15 24 8 13 - - -
10/09:30am - - - - - NE 20 26 11 14 - - -
10/09:00am - - - - - ENE 15 19 8 10 - - -
10/08:30am - - - - - ENE 17 24 9 13 - - -
10/08:00am - - - - - ENE 22 32 12 17 - - -
10/07:30am - - - - - ENE 24 32 13 17 - - -
10/07:00am - - - - - ENE 13 19 7 10 - - -
10/06:30am - - - - - E 9 13 5 7 - - -
10/06:00am - - - - - S 4 9 2 5 - - -
10/05:30am - - - - - E 7 7 4 4 - - -
10/05:00am - - - - - E 6 7 3 4 - - -
10/04:30am - - - - - E 2 6 1 3 - - -
10/04:00am - - - - - WNW 2 4 1 2 - - -
10/03:30am - - - - - NW 2 6 1 3 - - -
10/03:00am - - - - - ENE 6 7 3 4 - - -
10/02:30am - - - - - SE 13 17 7 9 - - -
10/02:00am - - - - - ESE 9 11 5 6 - - -
10/01:30am - - - - - SE 9 13 5 7 - - -
10/01:00am - - - - - SSE 7 11 4 6 - - -
10/12:30am - - - - - S 7 9 4 5 - - -
10/12:00am - - - - - SSW 9 11 5 6 - - -
 
Date/Time
WST
Temp
°C
App
Temp
°C
Dew
Point
°C
Rel
Hum
%
Delta-T
°C
Wind Press
QNH
hPa
Press
MSL
hPa
Rain since
9am
mm
Dir  Spd
km/h
Gust
km/h
Spd
kts
Gust
kts
09/11:30pm - - - - - SW 11 13 6 7 - - -
09/11:00pm - - - - - SSW 9 9 5 5 - - -
09/10:30pm - - - - - SW 9 11 5 6 - - -
09/10:00pm - - - - - SSW 7 11 4 6 - - -
09/09:30pm - - - - - S 11 15 6 8 - - -
09/09:00pm - - - - - S 15 19 8 10 - - -
09/08:30pm - - - - - SSW 9 13 5 7 - - -
09/08:00pm - - - - - SSW 11 13 6 7 - - -
09/07:30pm - - - - - SW 13 15 7 8 - - -
09/07:00pm - - - - - SW 13 17 7 9 - - -
09/06:30pm - - - - - SSW 19 22 10 12 - - -
09/06:00pm - - - - - SW 22 26 12 14 - - -
09/05:30pm - - - - - SSW 22 28 12 15 - - -
09/05:00pm - - - - - SSW 26 35 14 19 - - -
09/04:30pm - - - - - SSW 32 39 17 21 - - -
09/04:00pm - - - - - SSW 32 37 17 20 - - -
09/03:30pm - - - - - SW 28 33 15 18 - - -
09/03:00pm - - - - - SW 28 32 15 17 - - -
09/02:30pm - - - - - SW 24 30 13 16 - - -
09/02:00pm - - - - - SW 26 32 14 17 - - -
09/01:30pm - - - - - SW 22 28 12 15 - - -
09/01:00pm - - - - - SW 13 20 7 11 - - -
09/12:30pm - - - - - SW 15 17 8 9 - - -
09/12:00pm - - - - - SW 4 6 2 3 - - -
09/11:30am - - - - - SE 4 6 2 3 - - -
09/11:00am - - - - - NE 9 19 5 10 - - -
09/10:30am - - - - - ENE 13 19 7 10 - - -
09/10:00am - - - - - ENE 17 24 9 13 - - -
09/09:30am - - - - - ENE 20 26 11 14 - - -
09/09:00am - - - - - ENE 17 24 9 13 - - -
09/08:30am - - - - - ENE 19 26 10 14 - - -
09/08:00am - - - - - ENE 20 28 11 15 - - -
09/07:30am - - - - - ENE 20 28 11 15 - - -
09/07:00am - - - - - ENE 13 17 7 9 - - -
09/06:30am - - - - - SSE 4 7 2 4 - - -
09/06:00am - - - - - ESE 9 13 5 7 - - -
09/05:30am - - - - - ESE 11 13 6 7 - - -
09/05:00am - - - - - E 11 13 6 7 - - -
09/04:30am - - - - - ESE 11 15 6 8 - - -
09/04:00am - - - - - ESE 17 19 9 10 - - -
09/03:30am - - - - - ESE 15 19 8 10 - - -
09/03:00am - - - - - ESE 19 22 10 12 - - -
09/02:30am - - - - - ESE 11 15 6 8 - - -
09/02:00am - - - - - ESE 17 19 9 10 - - -
09/01:30am - - - - - ESE 15 19 8 10 - - -
09/01:00am - - - - - SSE 7 9 4 5 - - -
09/12:30am - - - - - SSE 7 11 4 6 - - -
09/12:00am - - - - - S 11 13 6 7 - - -
 
Date/Time
WST
Temp
°C
App
Temp
°C
Dew
Point
°C
Rel
Hum
%
Delta-T
°C
Wind Press
QNH
hPa
Press
MSL
hPa
Rain since
9am
mm
Dir  Spd
km/h
Gust
km/h
Spd
kts
Gust
kts
08/11:30pm - - - - - SSE 9 11 5 6 - - -
08/11:00pm - - - - - S 7 9 4 5 - - -
08/10:30pm - - - - - SSE 6 9 3 5 - - -
08/10:00pm - - - - - S 9 13 5 7 - - -
08/09:30pm - - - - - S 9 13 5 7 - - -
08/09:00pm - - - - - S 9 13 5 7 - - -
08/08:30pm - - - - - S 13 15 7 8 - - -
08/08:00pm - - - - - S 7 11 4 6 - - -
08/07:30pm - - - - - S 11 15 6 8 - - -
08/07:00pm - - - - - SSW 17 24 9 13 - - -
08/06:30pm - - - - - SSW 24 28 13 15 - - -
08/06:00pm - - - - - SSW 24 32 13 17 - - -
08/05:30pm - - - - - SSW 22 28 12 15 - - -
08/05:00pm - - - - - SW 22 26 12 14 - - -
08/04:30pm - - - - - SW 28 32 15 17 - - -
08/04:00pm - - - - - SW 26 32 14 17 - - -
08/03:30pm - - - - - SW 28 33 15 18 - - -
08/03:00pm - - - - - SW 24 30 13 16 - - -
08/02:30pm - - - - - SW 26 32 14 17 - - -
08/02:00pm - - - - - SW 26 33 14 18 - - -
08/01:39pm - - - - - WSW 19 32 10 17 - - -
08/01:30pm - - - - - WSW 6 9 3 5 - - -
08/01:00pm - - - - - ESE 6 13 3 7 - - -
08/12:30pm - - - - - SSE 9 20 5 11 - - -

Other Formats:

Comma delimited format used in spreadsheet applications
http://www.bom.gov.au/fwo/IDW60801/IDW60801.95620.axf

JavaScript Object Notation format (JSON) in row-major order
http://www.bom.gov.au/fwo/IDW60801/IDW60801.95620.json